createdAt,value
2022-10-25T00:01:18.550Z,13.59
2022-10-25T00:07:23.614Z,13.62
2022-10-25T00:10:26.112Z,13.67
2022-10-25T00:13:28.028Z,13.66
2022-10-25T00:16:34.350Z,13.71
2022-10-25T00:19:36.313Z,13.63
2022-10-25T00:22:38.629Z,13.58
2022-10-25T00:25:40.939Z,13.48
2022-10-25T00:28:43.211Z,13.50
2022-10-25T00:31:45.075Z,13.61
2022-10-25T00:34:47.350Z,13.59
2022-10-25T00:37:49.423Z,13.72
2022-10-25T00:40:51.579Z,13.56
2022-10-25T00:43:54.985Z,13.57
2022-10-25T00:46:57.247Z,13.58
2022-10-25T00:50:05.806Z,13.59
2022-10-25T00:53:13.748Z,13.59
2022-10-25T00:56:21.336Z,13.59
2022-10-25T00:59:26.172Z,13.58
2022-10-25T01:02:28.153Z,13.58
2022-10-25T01:05:30.524Z,13.58
2022-10-25T01:08:33.263Z,13.72
2022-10-25T01:11:37.737Z,13.75
2022-10-25T01:14:41.828Z,13.73
2022-10-25T01:18:01.774Z,13.70
2022-10-25T01:21:12.097Z,13.64
2022-10-25T01:24:33.021Z,13.70
2022-10-25T01:27:51.635Z,13.71
2022-10-25T01:31:19.500Z,13.72
2022-10-25T01:34:27.875Z,13.76
2022-10-25T01:37:52.023Z,13.81
2022-10-25T01:41:00.078Z,13.94
2022-10-25T01:44:05.828Z,14.00
2022-10-25T01:47:13.720Z,13.93
2022-10-25T01:50:18.998Z,13.79
2022-10-25T01:53:20.893Z,13.91
2022-10-25T01:56:34.143Z,14.04
2022-10-25T01:59:43.130Z,14.01
2022-10-25T02:02:52.168Z,13.90
2022-10-25T02:06:23.884Z,14.01
2022-10-25T02:09:29.987Z,14.07
2022-10-25T02:12:38.206Z,14.02
2022-10-25T02:15:41.252Z,13.85
2022-10-25T02:18:46.415Z,13.77
2022-10-25T02:21:49.050Z,13.89
2022-10-25T02:24:51.858Z,13.91
2022-10-25T02:27:54.528Z,13.85
2022-10-25T02:30:57.227Z,13.72
2022-10-25T02:33:59.220Z,13.76
2022-10-25T02:37:01.488Z,13.67
2022-10-25T02:40:03.404Z,13.62
2022-10-25T02:43:05.586Z,13.61
2022-10-25T02:46:27.732Z,13.59
2022-10-25T02:49:29.912Z,13.59
2022-10-25T02:52:31.837Z,13.58
2022-10-25T02:55:34.030Z,13.67
2022-10-25T02:58:37.432Z,13.66
2022-10-25T03:01:39.671Z,13.68
2022-10-25T03:04:41.618Z,13.72
2022-10-25T03:07:43.887Z,13.72
2022-10-25T03:10:46.333Z,13.72
2022-10-25T03:13:48.511Z,13.76
2022-10-25T03:16:50.407Z,13.76
2022-10-25T03:19:52.639Z,13.71
2022-10-25T03:22:54.527Z,13.62
2022-10-25T03:25:57.956Z,13.55
2022-10-25T03:28:59.838Z,13.54
2022-10-25T03:32:02.126Z,13.46
2022-10-25T03:35:04.152Z,13.53
2022-10-25T03:38:06.393Z,13.76
2022-10-25T03:41:08.382Z,13.90
2022-10-25T03:44:10.575Z,13.91
2022-10-25T03:47:12.443Z,13.75
2022-10-25T03:50:14.694Z,13.73
2022-10-25T03:53:16.657Z,13.78
2022-10-25T03:56:18.946Z,13.85
2022-10-25T03:59:20.844Z,13.89
2022-10-25T04:02:23.121Z,13.93
2022-10-25T04:05:25.993Z,13.93
2022-10-25T04:08:27.848Z,13.90
2022-10-25T04:11:30.043Z,13.95
2022-10-25T04:14:31.946Z,13.96
2022-10-25T04:17:34.140Z,13.97
2022-10-25T04:20:36.064Z,13.93
2022-10-25T04:23:38.289Z,13.96
2022-10-25T04:26:40.280Z,13.93
2022-10-25T04:29:42.528Z,13.85
2022-10-25T04:32:44.585Z,14.01
2022-10-25T04:35:52.567Z,14.03
2022-10-25T04:38:54.478Z,13.98
2022-10-25T04:41:56.697Z,14.04
2022-10-25T04:44:58.680Z,14.02
2022-10-25T04:48:01.007Z,13.96
2022-10-25T04:51:02.959Z,13.91
2022-10-25T04:54:05.382Z,13.81
2022-10-25T04:57:07.395Z,13.71
2022-10-25T05:00:10.174Z,13.69
2022-10-25T05:03:13.289Z,13.69
2022-10-25T05:06:20.022Z,13.63
2022-10-25T05:09:22.022Z,13.78
2022-10-25T05:12:24.410Z,13.78
2022-10-25T05:15:26.412Z,13.74
2022-10-25T05:18:29.887Z,13.73
2022-10-25T05:21:31.872Z,13.67
2022-10-25T05:24:34.181Z,13.80
2022-10-25T05:27:39.165Z,13.79
2022-10-25T05:30:42.535Z,13.84
2022-10-25T05:33:45.138Z,13.83
2022-10-25T05:36:47.357Z,13.80
2022-10-25T05:39:49.337Z,13.83
2022-10-25T05:42:53.162Z,13.74
2022-10-25T05:46:02.240Z,13.76
2022-10-25T05:49:04.641Z,13.73
2022-10-25T05:52:07.084Z,13.76
2022-10-25T05:55:09.654Z,13.72
2022-10-25T05:58:11.587Z,13.72
2022-10-25T06:01:15.370Z,13.81
2022-10-25T06:04:18.812Z,13.87
2022-10-25T06:07:20.715Z,13.85
2022-10-25T06:10:23.044Z,14.04
2022-10-25T06:13:26.306Z,13.96
2022-10-25T06:16:29.182Z,13.93
2022-10-25T06:19:31.247Z,13.83
2022-10-25T06:22:33.572Z,13.94
2022-10-25T06:25:35.654Z,13.85
2022-10-25T06:28:39.589Z,13.98
2022-10-25T06:31:43.190Z,13.97
2022-10-25T06:34:45.459Z,14.23
2022-10-25T06:37:47.324Z,14.30
2022-10-25T06:40:49.651Z,14.31
2022-10-25T06:43:51.764Z,14.41
2022-10-25T06:50:16.319Z,14.68
2022-10-25T06:53:21.545Z,14.73
2022-10-25T06:56:25.978Z,14.83
2022-10-25T06:59:30.040Z,14.93
2022-10-25T07:02:32.501Z,14.85
2022-10-25T07:05:35.877Z,14.95
2022-10-25T07:08:38.577Z,14.89
2022-10-25T07:11:41.094Z,14.89
2022-10-25T07:14:43.068Z,14.89
2022-10-25T07:17:45.505Z,15.06
2022-10-25T07:20:48.650Z,15.05
2022-10-25T07:23:51.136Z,15.12
2022-10-25T07:26:53.146Z,15.17
2022-10-25T07:29:55.358Z,15.30
2022-10-25T07:32:57.314Z,15.35
2022-10-25T07:36:09.727Z,15.58
2022-10-25T07:39:12.411Z,15.54
2022-10-25T07:42:14.649Z,15.70
2022-10-25T07:45:20.296Z,15.72
2022-10-25T07:48:25.897Z,15.86
2022-10-25T07:51:28.405Z,15.97
2022-10-25T07:54:30.666Z,16.03
2022-10-25T07:57:32.595Z,16.17
2022-10-25T08:00:35.618Z,16.29
2022-10-25T08:26:47.271Z,17.13
2022-10-25T08:29:49.425Z,17.08
2022-10-25T08:32:51.439Z,16.80
2022-10-25T08:35:53.557Z,16.70
2022-10-25T08:38:55.418Z,16.51
2022-10-25T08:41:58.748Z,16.50
2022-10-25T08:45:09.424Z,16.53
2022-10-25T08:48:16.382Z,16.58
2022-10-25T08:51:24.598Z,16.64
2022-10-25T08:54:35.522Z,16.64
2022-10-25T08:57:40.610Z,16.73
2022-10-25T09:00:45.338Z,16.62
2022-10-25T09:03:47.328Z,16.48
2022-10-25T09:06:49.688Z,16.76
2022-10-25T09:10:24.041Z,16.77
2022-10-25T09:13:45.235Z,16.98
2022-10-25T09:16:50.553Z,17.18
2022-10-25T09:20:02.385Z,17.37
2022-10-25T09:23:04.283Z,17.47
2022-10-25T09:26:12.893Z,17.39
2022-10-25T09:29:18.723Z,17.26
2022-10-25T09:32:25.541Z,17.05
2022-10-25T09:35:31.030Z,16.95
2022-10-25T09:38:46.780Z,16.81
2022-10-25T09:41:51.861Z,16.85
2022-10-25T09:44:56.291Z,16.88
2022-10-25T09:48:11.623Z,16.87
2022-10-25T09:51:20.137Z,16.86
2022-10-25T09:54:28.182Z,16.93
2022-10-25T09:57:30.426Z,16.83
2022-10-25T10:00:33.265Z,16.90
2022-10-25T10:03:36.487Z,16.84
2022-10-25T10:06:39.687Z,16.88
2022-10-25T10:09:45.862Z,17.23
2022-10-25T10:16:01.473Z,17.28
2022-10-25T10:19:21.110Z,17.39
2022-10-25T10:22:23.343Z,17.67
2022-10-25T10:25:28.352Z,17.80
2022-10-25T10:28:30.795Z,17.54
2022-10-25T10:31:37.049Z,17.31
2022-10-25T10:34:42.912Z,17.33
2022-10-25T10:37:45.024Z,17.48
2022-10-25T10:40:50.714Z,17.73
2022-10-25T10:44:13.121Z,18.04
2022-10-25T10:47:19.956Z,18.03
2022-10-25T10:50:25.534Z,17.91
2022-10-25T10:53:32.909Z,17.81
2022-10-25T10:56:34.815Z,18.01
2022-10-25T10:59:52.477Z,19.10
2022-10-25T11:06:02.678Z,19.05
2022-10-25T11:09:04.529Z,18.58
2022-10-25T11:12:15.850Z,18.27
2022-10-25T11:15:18.149Z,18.40
2022-10-25T11:18:22.972Z,19.47
2022-10-25T11:21:32.224Z,20.07
2022-10-25T11:24:40.301Z,19.76
2022-10-25T11:27:51.724Z,21.14
2022-10-25T11:30:53.977Z,22.97
2022-10-25T11:34:14.722Z,24.09
2022-10-25T11:37:19.846Z,24.30
2022-10-25T11:40:27.035Z,24.17
2022-10-25T11:43:48.517Z,25.42
2022-10-25T11:47:09.333Z,26.02
2022-10-25T11:50:28.583Z,27.74
2022-10-25T11:53:51.888Z,28.58
2022-10-25T11:57:06.524Z,28.88
2022-10-25T12:00:40.279Z,28.49
2022-10-25T12:03:56.206Z,27.59
2022-10-25T12:06:58.069Z,29.22
2022-10-25T12:10:32.649Z,29.49
2022-10-25T12:13:34.704Z,27.94
2022-10-25T12:16:37.674Z,25.40
2022-10-25T12:20:03.013Z,24.18
2022-10-25T12:23:24.144Z,21.85
2022-10-25T12:30:05.341Z,20.82
2022-10-25T12:33:16.878Z,20.38
2022-10-25T12:36:28.143Z,20.07
2022-10-25T12:39:41.110Z,19.89
2022-10-25T12:42:46.078Z,19.71
2022-10-25T12:46:00.850Z,19.76
2022-10-25T12:49:11.742Z,19.65
2022-10-25T12:52:19.824Z,20.04
2022-10-25T12:55:29.819Z,20.66
2022-10-25T12:58:49.570Z,21.03
2022-10-25T13:02:02.927Z,21.68
2022-10-25T13:05:23.867Z,22.28
2022-10-25T13:08:26.411Z,22.88
2022-10-25T13:11:33.532Z,23.78
2022-10-25T13:14:43.087Z,24.52
2022-10-25T13:17:57.215Z,24.52
2022-10-25T13:21:04.152Z,23.96
2022-10-25T13:24:08.730Z,24.61
2022-10-25T13:27:13.775Z,24.65
2022-10-25T13:30:23.604Z,23.86
2022-10-25T13:33:27.653Z,23.28
2022-10-25T13:36:56.007Z,23.49
2022-10-25T13:40:00.520Z,24.35
2022-10-25T13:43:07.809Z,23.64
2022-10-25T13:46:24.527Z,23.71
2022-10-25T13:49:40.262Z,24.04
2022-10-25T13:52:50.588Z,23.94
2022-10-25T13:56:19.268Z,23.75
2022-10-25T13:59:33.428Z,23.38
2022-10-25T14:02:55.572Z,23.12
2022-10-25T14:05:57.767Z,21.78
2022-10-25T14:09:02.459Z,21.39
2022-10-25T14:12:14.611Z,20.95
2022-10-25T14:15:37.971Z,20.52
2022-10-25T14:18:40.574Z,20.21
2022-10-25T14:21:50.564Z,20.00
2022-10-25T14:24:53.845Z,19.81
2022-10-25T14:28:06.434Z,19.59
2022-10-25T14:31:12.317Z,19.43
2022-10-25T14:34:24.953Z,19.09
2022-10-25T14:37:27.542Z,18.98
2022-10-25T14:40:30.849Z,18.88
2022-10-25T14:43:34.053Z,18.68
2022-10-25T14:46:43.748Z,18.58
2022-10-25T14:49:45.901Z,18.44
2022-10-25T14:52:49.536Z,18.20
2022-10-25T14:55:53.843Z,18.03
2022-10-25T14:58:56.124Z,17.89
2022-10-25T15:02:00.246Z,17.79
2022-10-25T15:05:03.318Z,17.72
2022-10-25T15:08:05.496Z,17.62
2022-10-25T15:11:10.432Z,17.40
2022-10-25T15:14:20.283Z,17.36
2022-10-25T15:17:22.163Z,17.33
2022-10-25T15:20:34.524Z,17.28
2022-10-25T15:23:37.159Z,17.05
2022-10-25T15:26:49.963Z,16.87
2022-10-25T15:29:51.889Z,16.65
2022-10-25T15:32:54.078Z,16.44
2022-10-25T15:36:00.377Z,16.22
2022-10-25T15:39:10.512Z,16.14
2022-10-25T15:42:16.499Z,16.23
2022-10-25T15:45:18.647Z,16.12
2022-10-25T15:48:22.382Z,16.04
2022-10-25T15:51:27.484Z,15.78
2022-10-25T15:54:34.483Z,15.63
2022-10-25T15:57:36.634Z,15.49
2022-10-25T16:00:38.625Z,15.33
2022-10-25T16:03:40.781Z,15.12
2022-10-25T16:06:43.596Z,14.98
2022-10-25T16:09:45.885Z,14.84
2022-10-25T16:12:50.299Z,14.71
2022-10-25T16:15:52.574Z,14.64
2022-10-25T16:18:54.830Z,14.55
2022-10-25T16:21:57.516Z,14.48
2022-10-25T16:24:59.415Z,14.45
2022-10-25T16:28:01.677Z,14.40
2022-10-25T16:31:03.579Z,14.28
2022-10-25T16:34:05.716Z,14.18
2022-10-25T16:37:11.400Z,14.17
2022-10-25T16:40:15.088Z,14.12
2022-10-25T16:43:16.956Z,14.05
2022-10-25T16:46:19.142Z,14.04
2022-10-25T16:49:20.999Z,14.04
2022-10-25T16:52:23.167Z,13.94
2022-10-25T16:55:26.690Z,13.84
2022-10-25T16:58:28.850Z,13.72
2022-10-25T17:01:35.103Z,13.72
2022-10-25T17:04:37.474Z,13.62
2022-10-25T17:07:43.070Z,13.53
2022-10-25T17:10:46.154Z,13.51
2022-10-25T17:13:48.184Z,13.45
2022-10-25T17:16:50.374Z,13.34
2022-10-25T17:19:52.249Z,13.29
2022-10-25T17:22:54.770Z,13.24
2022-10-25T17:25:59.839Z,13.22
2022-10-25T17:29:02.560Z,13.10
2022-10-25T17:32:04.483Z,13.04
2022-10-25T17:35:06.763Z,12.95
2022-10-25T17:38:10.281Z,12.84
2022-10-25T17:41:13.312Z,12.86
2022-10-25T17:44:15.207Z,12.79
2022-10-25T17:47:17.417Z,12.69
2022-10-25T17:50:20.622Z,12.60
2022-10-25T17:53:22.842Z,12.59
2022-10-25T17:56:25.915Z,12.68
2022-10-25T17:59:28.979Z,12.61
2022-10-25T18:02:30.947Z,12.63
2022-10-25T18:05:33.189Z,12.68
2022-10-25T18:08:36.474Z,12.50
2022-10-25T18:11:38.974Z,12.44
2022-10-25T18:14:40.882Z,12.36
2022-10-25T18:17:46.044Z,12.31
2022-10-25T18:20:51.425Z,12.32
2022-10-25T18:23:58.118Z,12.43
2022-10-25T18:27:00.102Z,12.38
2022-10-25T18:30:02.564Z,12.29
2022-10-25T18:33:09.037Z,12.31
2022-10-25T18:36:14.909Z,12.44
2022-10-25T18:39:16.822Z,12.51
2022-10-25T18:42:18.986Z,12.44
2022-10-25T18:45:20.902Z,12.34
2022-10-25T18:48:23.142Z,12.25
2022-10-25T18:51:26.645Z,12.18
2022-10-25T18:54:28.826Z,12.09
2022-10-25T18:57:30.766Z,12.08
2022-10-25T19:00:32.970Z,12.02
2022-10-25T19:03:35.183Z,11.99
2022-10-25T19:06:37.392Z,11.98
2022-10-25T19:09:39.322Z,11.92
2022-10-25T19:12:41.505Z,11.92
2022-10-25T19:15:43.396Z,11.86
2022-10-25T19:18:45.537Z,11.88
2022-10-25T19:21:47.446Z,11.83
2022-10-25T19:24:49.670Z,11.82
2022-10-25T19:27:51.602Z,11.82
2022-10-25T19:30:53.806Z,11.86
2022-10-25T19:34:00.054Z,11.90
2022-10-25T19:37:04.309Z,11.80
2022-10-25T19:40:07.462Z,11.75
2022-10-25T19:43:09.631Z,11.88
2022-10-25T19:46:12.162Z,11.84
2022-10-25T19:49:14.326Z,11.81
2022-10-25T19:52:16.240Z,11.69
2022-10-25T19:55:18.549Z,11.60
2022-10-25T19:58:20.430Z,11.54
2022-10-25T20:01:23.672Z,11.49
2022-10-25T20:04:25.962Z,11.44
2022-10-25T20:07:27.841Z,11.39
2022-10-25T20:10:30.016Z,11.39
2022-10-25T20:13:32.167Z,11.53
2022-10-25T20:16:34.611Z,11.59
2022-10-25T20:19:36.545Z,11.41
2022-10-25T20:22:38.759Z,11.26
2022-10-25T20:25:40.656Z,11.22
2022-10-25T20:28:43.245Z,11.18
2022-10-25T20:31:45.209Z,11.15
2022-10-25T20:34:47.366Z,11.08
2022-10-25T20:37:49.550Z,11.06
2022-10-25T20:40:51.904Z,11.07
2022-10-25T20:43:55.025Z,10.97
2022-10-25T20:46:57.201Z,10.95
2022-10-25T20:49:59.090Z,10.90
2022-10-25T20:53:16.450Z,10.85
2022-10-25T20:56:19.136Z,10.82
2022-10-25T20:59:21.406Z,10.82
2022-10-25T21:02:23.395Z,10.86
2022-10-25T21:05:25.649Z,10.97
2022-10-25T21:08:27.558Z,10.94
2022-10-25T21:11:29.761Z,10.89
2022-10-25T21:14:31.684Z,10.86
2022-10-25T21:17:34.030Z,10.85
2022-10-25T21:20:36.863Z,10.81
2022-10-25T21:23:39.029Z,10.75
2022-10-25T21:26:41.102Z,10.68
2022-10-25T21:29:43.454Z,10.66
2022-10-25T21:32:45.375Z,10.63
2022-10-25T21:35:47.590Z,10.60
2022-10-25T21:38:49.480Z,10.51
2022-10-25T21:41:52.182Z,10.48
2022-10-25T21:44:54.080Z,10.47
2022-10-25T21:47:56.316Z,10.50
2022-10-25T21:50:58.889Z,10.44
2022-10-25T21:54:04.283Z,10.36
2022-10-25T21:57:06.177Z,10.26
2022-10-25T22:00:08.759Z,10.21
2022-10-25T22:03:14.499Z,10.22
2022-10-25T22:06:17.817Z,10.13
2022-10-25T22:09:19.805Z,10.09
2022-10-25T22:12:21.969Z,10.13
2022-10-25T22:15:23.852Z,10.08
2022-10-25T22:18:26.021Z,10.09
2022-10-25T22:21:28.548Z,10.03
2022-10-25T22:24:30.744Z,10.06
2022-10-25T22:27:32.696Z,10.12
2022-10-25T22:30:34.875Z,10.01
2022-10-25T22:33:37.164Z,9.94
2022-10-25T22:36:40.984Z,9.93
2022-10-25T22:39:42.885Z,9.92
2022-10-25T22:42:45.031Z,10.03
2022-10-25T22:45:46.906Z,10.08
2022-10-25T22:48:49.499Z,10.12
2022-10-25T22:51:51.437Z,9.94
2022-10-25T22:54:53.800Z,9.85
2022-10-25T22:57:55.983Z,9.94
2022-10-25T23:00:59.506Z,9.89
2022-10-25T23:04:04.108Z,9.91
2022-10-25T23:07:06.451Z,9.95
2022-10-25T23:10:08.578Z,9.81
2022-10-25T23:13:10.779Z,9.79
2022-10-25T23:16:13.650Z,9.78
2022-10-25T23:19:15.819Z,9.80
2022-10-25T23:22:17.712Z,9.88
2022-10-25T23:25:19.907Z,9.77
2022-10-25T23:28:21.806Z,9.92
2022-10-25T23:31:24.404Z,9.77
2022-10-25T23:34:26.292Z,9.77
2022-10-25T23:37:28.492Z,9.63
2022-10-25T23:40:31.668Z,9.59
2022-10-25T23:43:34.499Z,9.62
2022-10-25T23:46:36.428Z,9.72
2022-10-25T23:49:38.604Z,9.64
2022-10-25T23:52:40.505Z,9.56
2022-10-25T23:55:42.701Z,9.41
2022-10-25T23:58:44.618Z,9.43
